createdAt,value
2019-05-22T00:00:30.722Z,38.50
2019-05-22T00:03:01.869Z,36.07
2019-05-22T00:05:37.284Z,43.57
2019-05-22T00:08:08.867Z,42.27
2019-05-22T00:10:39.807Z,41.70
2019-05-22T00:13:10.546Z,40.17
2019-05-22T00:15:39.924Z,43.53
2019-05-22T00:18:10.858Z,40.37
2019-05-22T00:20:41.722Z,39.07
2019-05-22T00:23:14.920Z,26.40
2019-05-22T00:25:47.293Z,41.10
2019-05-22T00:28:18.229Z,46.30
2019-05-22T00:30:49.200Z,45.77
2019-05-22T00:33:18.648Z,46.30
2019-05-22T00:35:47.744Z,46.10
2019-05-22T00:38:18.306Z,44.87
2019-05-22T00:40:51.908Z,48.30
2019-05-22T00:43:34.001Z,42.53
2019-05-22T00:46:08.533Z,29.93
2019-05-22T00:48:38.858Z,42.77
2019-05-22T00:51:29.462Z,36.47
2019-05-22T00:54:03.672Z,43.23
2019-05-22T00:56:37.279Z,48.40
2019-05-22T00:59:21.120Z,43.40
2019-05-22T01:01:59.237Z,44.10
2019-05-22T01:04:32.378Z,43.53
2019-05-22T01:07:04.609Z,43.07
2019-05-22T01:09:39.360Z,51.53
2019-05-22T01:12:12.736Z,38.47
2019-05-22T01:14:43.230Z,37.87
2019-05-22T01:17:14.590Z,39.80
2019-05-22T01:19:46.953Z,43.60
2019-05-22T01:22:18.222Z,46.67
2019-05-22T01:24:51.508Z,41.80
2019-05-22T01:27:21.121Z,35.17
2019-05-22T01:29:50.629Z,39.17
2019-05-22T01:32:21.581Z,37.83
2019-05-22T01:34:51.279Z,42.17
2019-05-22T01:37:20.438Z,39.13
2019-05-22T01:39:53.828Z,40.90
2019-05-22T01:42:27.180Z,48.67
2019-05-22T01:45:05.909Z,49.87
2019-05-22T01:47:49.444Z,38.73
2019-05-22T01:50:41.979Z,42.90
2019-05-22T01:53:12.374Z,40.00
2019-05-22T01:55:43.772Z,44.07
2019-05-22T01:58:13.365Z,40.33
2019-05-22T02:00:42.498Z,51.00
2019-05-22T02:03:12.169Z,42.10
2019-05-22T02:05:42.702Z,51.67
2019-05-22T02:08:11.983Z,46.23
2019-05-22T02:10:42.806Z,43.80
2019-05-22T02:13:14.296Z,34.40
2019-05-22T02:15:46.434Z,39.00
2019-05-22T02:18:17.985Z,33.87
2019-05-22T02:20:48.532Z,39.90
2019-05-22T02:23:18.052Z,45.20
2019-05-22T02:25:47.207Z,38.97
2019-05-22T02:28:16.961Z,47.87
2019-05-22T02:30:47.769Z,38.20
2019-05-22T02:33:19.700Z,45.10
2019-05-22T02:35:49.553Z,31.53
2019-05-22T02:38:18.989Z,39.73
2019-05-22T02:40:49.690Z,43.10
2019-05-22T02:43:19.601Z,29.87
2019-05-22T02:45:49.837Z,37.50
2019-05-22T02:48:18.800Z,49.27
2019-05-22T02:50:48.638Z,36.70
2019-05-22T02:53:17.735Z,44.47
2019-05-22T02:55:47.710Z,46.63
2019-05-22T02:58:18.497Z,52.57
2019-05-22T03:01:00.334Z,51.07
2019-05-22T03:03:31.047Z,49.90
2019-05-22T03:06:03.996Z,53.63
2019-05-22T03:08:58.705Z,54.40
2019-05-22T03:11:34.854Z,56.47
2019-05-22T03:14:05.003Z,53.67
2019-05-22T03:16:45.193Z,52.17
2019-05-22T03:19:18.667Z,55.87
2019-05-22T03:21:47.530Z,42.73
2019-05-22T03:24:16.960Z,51.67
2019-05-22T03:26:48.996Z,55.60
2019-05-22T03:29:20.146Z,56.07
2019-05-22T03:31:49.423Z,40.70
2019-05-22T03:34:18.562Z,30.90
2019-05-22T03:36:47.876Z,34.93
2019-05-22T03:39:19.810Z,49.90
2019-05-22T03:41:49.454Z,46.40
2019-05-22T03:44:19.764Z,50.77
2019-05-22T03:46:49.799Z,42.03
2019-05-22T03:49:29.974Z,41.83
2019-05-22T03:51:52.633Z,45.80
2019-05-22T03:54:22.092Z,45.83
2019-05-22T03:56:53.143Z,48.07
2019-05-22T03:59:22.098Z,41.40
2019-05-22T04:01:52.746Z,39.03
2019-05-22T04:04:36.832Z,36.80
2019-05-22T04:07:08.370Z,34.57
2019-05-22T04:09:40.984Z,37.03
2019-05-22T04:12:10.863Z,42.43
2019-05-22T04:14:40.691Z,39.13
2019-05-22T04:17:13.689Z,34.23
2019-05-22T04:19:50.517Z,31.47
2019-05-22T04:22:16.337Z,31.73
2019-05-22T04:24:45.680Z,42.23
2019-05-22T04:27:15.833Z,28.37
2019-05-22T04:29:45.230Z,33.73
2019-05-22T04:32:16.174Z,40.43
2019-05-22T04:34:46.962Z,32.57
2019-05-22T04:37:16.464Z,38.93
2019-05-22T04:39:46.462Z,38.60
2019-05-22T04:42:16.480Z,31.43
2019-05-22T04:45:10.266Z,41.13
2019-05-22T04:47:40.374Z,34.37
2019-05-22T04:50:10.510Z,34.20
2019-05-22T04:52:39.694Z,39.93
2019-05-22T04:55:10.827Z,32.63
2019-05-22T04:57:41.275Z,30.93
2019-05-22T05:00:12.292Z,39.80
2019-05-22T05:02:43.193Z,25.97
2019-05-22T05:05:13.834Z,30.40
2019-05-22T05:07:44.112Z,37.27
2019-05-22T05:10:13.308Z,34.97
2019-05-22T05:12:42.514Z,33.47
2019-05-22T05:15:12.132Z,42.87
2019-05-22T05:17:40.910Z,39.60
2019-05-22T05:20:21.971Z,33.63
2019-05-22T05:22:43.818Z,36.60
2019-05-22T05:25:14.843Z,39.83
2019-05-22T05:27:45.086Z,25.60
2019-05-22T05:30:16.273Z,36.67
2019-05-22T05:32:45.804Z,28.87
2019-05-22T05:35:16.988Z,34.60
2019-05-22T05:37:47.018Z,29.07
2019-05-22T05:40:44.059Z,31.70
2019-05-22T05:43:15.388Z,35.77
2019-05-22T05:45:47.061Z,35.60
2019-05-22T05:48:21.396Z,31.60
2019-05-22T05:51:08.611Z,34.47
2019-05-22T05:53:55.215Z,27.27
2019-05-22T05:56:28.221Z,33.60
2019-05-22T05:58:57.897Z,36.83
2019-05-22T06:01:28.319Z,27.63
2019-05-22T06:03:58.828Z,35.97
2019-05-22T06:06:34.845Z,34.10
2019-05-22T06:09:07.424Z,34.07
2019-05-22T06:11:52.420Z,37.67
2019-05-22T06:14:33.957Z,28.60
2019-05-22T06:17:25.158Z,28.83
2019-05-22T06:19:59.720Z,29.77
2019-05-22T06:22:29.109Z,31.93
2019-05-22T06:25:01.329Z,31.77
2019-05-22T06:27:43.068Z,20.97
2019-05-22T06:30:16.722Z,30.97
2019-05-22T06:33:07.780Z,33.87
2019-05-22T06:35:38.841Z,32.93
2019-05-22T06:38:39.175Z,30.17
2019-05-22T06:41:08.858Z,30.93
2019-05-22T06:43:41.877Z,27.13
2019-05-22T06:46:12.791Z,28.37
2019-05-22T06:48:42.452Z,32.97
2019-05-22T06:51:19.423Z,40.67
2019-05-22T06:53:41.951Z,39.53
2019-05-22T06:56:11.809Z,30.43
2019-05-22T06:58:40.536Z,40.43
2019-05-22T07:01:09.315Z,33.77
2019-05-22T07:03:38.342Z,32.67
2019-05-22T07:06:07.229Z,35.13
2019-05-22T07:08:36.051Z,35.27
2019-05-22T07:11:04.832Z,30.73
2019-05-22T07:13:34.242Z,25.17
2019-05-22T07:16:03.639Z,28.90
2019-05-22T07:18:33.149Z,28.67
2019-05-22T07:21:03.663Z,32.67
2019-05-22T07:23:34.923Z,29.93
2019-05-22T07:26:04.324Z,29.27
2019-05-22T07:28:33.347Z,26.23
2019-05-22T07:31:02.980Z,25.30
2019-05-22T07:33:32.784Z,21.87
2019-05-22T07:36:13.553Z,23.13
2019-05-22T07:38:33.576Z,23.67
2019-05-22T07:41:03.812Z,18.97
2019-05-22T07:43:32.640Z,25.67
2019-05-22T07:46:01.866Z,20.60
2019-05-22T07:48:31.906Z,28.87
2019-05-22T07:51:02.372Z,21.63
2019-05-22T07:53:31.329Z,27.83
2019-05-22T07:56:04.277Z,23.57
2019-05-22T07:58:34.737Z,20.90
2019-05-22T08:01:04.945Z,22.60
2019-05-22T08:03:34.360Z,15.63
2019-05-22T08:06:05.603Z,19.43
2019-05-22T08:08:36.142Z,21.63
2019-05-22T08:11:05.793Z,22.57
2019-05-22T08:13:35.510Z,21.37
2019-05-22T08:16:04.651Z,24.97
2019-05-22T08:18:35.277Z,20.23
2019-05-22T08:21:04.737Z,22.30
2019-05-22T08:23:34.395Z,20.87
2019-05-22T08:26:03.368Z,23.10
2019-05-22T08:28:33.292Z,21.83
2019-05-22T08:31:05.715Z,21.47
2019-05-22T08:33:36.717Z,13.83
2019-05-22T08:36:06.857Z,20.47
2019-05-22T08:38:36.010Z,18.93
2019-05-22T08:41:08.854Z,14.97
2019-05-22T08:44:03.206Z,14.77
2019-05-22T08:46:11.107Z,15.07
2019-05-22T08:48:48.190Z,16.70
2019-05-22T08:51:14.245Z,11.97
2019-05-22T08:53:48.450Z,15.00
2019-05-22T08:56:14.497Z,13.33
2019-05-22T08:58:45.015Z,17.30
2019-05-22T09:01:14.330Z,14.73
2019-05-22T09:03:43.686Z,11.43
2019-05-22T09:06:12.813Z,19.53
2019-05-22T09:08:41.854Z,18.50
2019-05-22T09:11:11.476Z,20.87
2019-05-22T09:13:40.355Z,24.40
2019-05-22T09:16:10.338Z,22.33
2019-05-22T09:18:39.135Z,21.50
2019-05-22T09:21:07.977Z,19.77
2019-05-22T09:23:37.143Z,20.43
2019-05-22T09:26:06.724Z,21.40
2019-05-22T09:28:35.524Z,21.50
2019-05-22T09:31:05.629Z,22.63
2019-05-22T09:33:35.845Z,17.40
2019-05-22T09:36:05.114Z,19.20
2019-05-22T09:38:34.119Z,19.67
2019-05-22T09:41:05.303Z,17.10
2019-05-22T09:43:34.446Z,21.20
2019-05-22T09:46:03.712Z,20.73
2019-05-22T09:48:34.367Z,17.90
2019-05-22T09:51:03.425Z,18.30
2019-05-22T09:53:33.175Z,15.33
2019-05-22T09:56:02.027Z,19.43
2019-05-22T09:58:31.384Z,20.67
2019-05-22T10:01:00.836Z,20.93
2019-05-22T10:03:32.706Z,16.33
2019-05-22T10:06:02.050Z,18.43
2019-05-22T10:08:31.460Z,19.57
2019-05-22T10:11:00.441Z,18.13
2019-05-22T10:13:29.597Z,21.20
2019-05-22T10:15:58.689Z,18.03
2019-05-22T10:18:27.591Z,15.83
2019-05-22T10:20:57.391Z,13.53
2019-05-22T10:23:26.964Z,15.77
2019-05-22T10:25:56.101Z,15.20
2019-05-22T10:28:25.177Z,14.07
2019-05-22T10:30:56.174Z,13.00
2019-05-22T10:33:25.526Z,10.43
2019-05-22T10:35:54.537Z,12.53
2019-05-22T10:38:23.345Z,13.93
2019-05-22T10:40:52.384Z,11.83
2019-05-22T10:43:21.392Z,11.93
2019-05-22T10:45:50.386Z,13.53
2019-05-22T10:48:19.180Z,10.67
2019-05-22T10:50:47.961Z,14.80
2019-05-22T10:53:32.466Z,14.17
2019-05-22T10:55:48.096Z,15.57
2019-05-22T10:58:16.929Z,11.83
2019-05-22T11:00:46.060Z,9.10
2019-05-22T11:03:15.895Z,7.43
2019-05-22T11:05:45.720Z,8.00
2019-05-22T11:08:14.864Z,8.70
2019-05-22T11:10:45.325Z,7.73
2019-05-22T11:13:14.883Z,11.97
2019-05-22T11:15:44.138Z,12.47
2019-05-22T11:18:13.074Z,12.20
2019-05-22T11:20:42.558Z,11.97
2019-05-22T11:23:12.301Z,12.70
2019-05-22T11:25:41.182Z,12.43
2019-05-22T11:28:10.048Z,15.30
2019-05-22T11:30:39.448Z,12.33
2019-05-22T11:33:09.579Z,11.43
2019-05-22T11:35:39.220Z,10.17
2019-05-22T11:38:09.108Z,13.40
2019-05-22T11:40:38.398Z,10.60
2019-05-22T11:43:07.779Z,8.97
2019-05-22T11:45:37.238Z,12.93
2019-05-22T11:48:06.947Z,9.77
2019-05-22T11:50:35.737Z,9.83
2019-05-22T11:53:04.907Z,11.03
2019-05-22T11:55:45.184Z,12.00
2019-05-22T11:58:04.729Z,11.00
2019-05-22T12:00:33.592Z,10.53
2019-05-22T12:03:03.480Z,12.37
2019-05-22T12:05:33.066Z,6.90
2019-05-22T12:08:02.966Z,8.80
2019-05-22T12:10:31.964Z,12.67
2019-05-22T12:13:01.066Z,11.43
2019-05-22T12:15:31.105Z,11.53
2019-05-22T12:18:00.640Z,12.53
2019-05-22T12:20:31.011Z,5.30
2019-05-22T12:23:00.551Z,11.77
2019-05-22T12:25:30.088Z,10.93
2019-05-22T12:27:59.251Z,10.67
2019-05-22T12:30:28.525Z,10.60
2019-05-22T12:32:59.571Z,10.27
2019-05-22T12:35:31.000Z,9.10
2019-05-22T12:38:00.666Z,9.03
2019-05-22T12:40:33.799Z,8.13
2019-05-22T12:43:03.558Z,7.27
2019-05-22T12:45:33.577Z,7.03
2019-05-22T12:48:03.956Z,6.93
2019-05-22T12:50:33.909Z,7.57
2019-05-22T12:53:06.420Z,7.23
2019-05-22T12:55:35.539Z,7.20
2019-05-22T12:58:05.982Z,7.40
2019-05-22T13:00:35.651Z,7.63
2019-05-22T13:03:06.634Z,7.67
2019-05-22T13:05:36.451Z,5.87
2019-05-22T13:08:05.773Z,6.50
2019-05-22T13:10:36.249Z,6.10
2019-05-22T13:13:05.522Z,6.73
2019-05-22T13:15:35.829Z,5.80
2019-05-22T13:18:07.364Z,6.77
2019-05-22T13:20:43.199Z,5.30
2019-05-22T13:23:10.043Z,6.10
2019-05-22T13:25:39.834Z,6.33
2019-05-22T13:28:12.555Z,5.10
2019-05-22T13:30:43.026Z,7.30
2019-05-22T13:33:15.476Z,6.27
2019-05-22T13:35:46.160Z,6.60
2019-05-22T13:38:15.651Z,6.77
2019-05-22T13:40:44.834Z,5.73
2019-05-22T13:43:13.795Z,6.77
2019-05-22T13:45:43.005Z,7.90
2019-05-22T13:48:12.846Z,7.10
2019-05-22T13:50:41.738Z,6.73
2019-05-22T13:53:13.022Z,5.57
2019-05-22T13:55:41.967Z,5.30
2019-05-22T13:58:11.993Z,6.50
2019-05-22T14:00:44.274Z,5.27
2019-05-22T14:03:14.954Z,5.70
2019-05-22T14:05:46.010Z,5.50
2019-05-22T14:08:15.514Z,5.10
2019-05-22T14:10:45.019Z,4.60
2019-05-22T14:13:16.290Z,5.20
2019-05-22T14:15:52.515Z,5.20
2019-05-22T14:18:17.070Z,4.83
2019-05-22T14:20:46.772Z,4.60
2019-05-22T14:23:16.579Z,5.10
2019-05-22T14:25:47.420Z,4.13
2019-05-22T14:28:16.702Z,4.57
2019-05-22T14:30:46.127Z,4.60
2019-05-22T14:33:15.641Z,4.70
2019-05-22T14:35:49.031Z,5.13
2019-05-22T14:38:16.738Z,4.20
2019-05-22T14:40:45.621Z,3.93
2019-05-22T14:43:14.686Z,4.60
2019-05-22T14:45:44.137Z,3.20
2019-05-22T14:48:14.039Z,5.33
2019-05-22T14:50:45.075Z,4.63
2019-05-22T14:53:14.727Z,4.87
2019-05-22T14:55:44.893Z,5.10
2019-05-22T14:58:15.369Z,3.67
2019-05-22T15:00:44.610Z,4.33
2019-05-22T15:03:13.812Z,4.13
2019-05-22T15:05:44.892Z,5.07
2019-05-22T15:08:14.258Z,4.33
2019-05-22T15:10:43.955Z,4.47
2019-05-22T15:13:13.681Z,4.70
2019-05-22T15:15:42.966Z,4.70
2019-05-22T15:18:12.705Z,4.30
2019-05-22T15:20:47.007Z,5.27
2019-05-22T15:23:16.718Z,4.27
2019-05-22T15:25:45.818Z,4.37
2019-05-22T15:28:15.193Z,4.77
2019-05-22T15:30:44.497Z,4.80
2019-05-22T15:33:13.602Z,5.37
2019-05-22T15:35:43.336Z,5.60
2019-05-22T15:38:12.845Z,5.27
2019-05-22T15:40:41.734Z,5.10
2019-05-22T15:43:12.260Z,4.43
2019-05-22T15:45:42.616Z,5.37
2019-05-22T15:48:16.841Z,5.40
2019-05-22T15:50:48.339Z,3.37
2019-05-22T15:53:17.756Z,5.60
2019-05-22T15:55:48.584Z,5.33
2019-05-22T15:58:19.070Z,5.53
2019-05-22T16:00:48.641Z,4.13
2019-05-22T16:03:21.508Z,5.70
2019-05-22T16:05:52.974Z,5.37
2019-05-22T16:08:22.609Z,5.47
2019-05-22T16:10:52.582Z,5.57
2019-05-22T16:13:23.239Z,5.70
2019-05-22T16:15:54.733Z,6.20
2019-05-22T16:18:28.605Z,6.33
2019-05-22T16:21:03.802Z,5.80
2019-05-22T16:23:35.733Z,5.43
2019-05-22T16:26:06.936Z,4.07
2019-05-22T16:28:39.013Z,4.57
2019-05-22T16:31:10.582Z,7.97
2019-05-22T16:33:41.803Z,4.83
2019-05-22T16:36:11.723Z,5.23
2019-05-22T16:38:41.318Z,4.47
2019-05-22T16:41:10.869Z,4.00
2019-05-22T16:43:49.558Z,4.50
2019-05-22T16:46:17.124Z,4.10
2019-05-22T16:48:49.072Z,4.03
2019-05-22T16:51:18.613Z,4.17
2019-05-22T16:53:50.456Z,4.70
2019-05-22T16:56:21.504Z,3.73
2019-05-22T16:58:51.825Z,5.10
2019-05-22T17:01:22.337Z,7.00
2019-05-22T17:03:53.302Z,4.70
2019-05-22T17:06:23.155Z,8.10
2019-05-22T17:08:52.183Z,5.23
2019-05-22T17:11:21.983Z,5.07
2019-05-22T17:13:51.538Z,6.07
2019-05-22T17:16:20.636Z,5.63
2019-05-22T17:18:49.926Z,6.63
2019-05-22T17:21:19.204Z,8.03
2019-05-22T17:23:50.006Z,5.77
2019-05-22T17:26:19.288Z,9.80
2019-05-22T17:28:49.133Z,6.00
2019-05-22T17:31:19.207Z,6.37
2019-05-22T17:33:48.470Z,4.90
2019-05-22T17:36:19.922Z,6.07
2019-05-22T17:38:49.220Z,4.63
2019-05-22T17:41:18.963Z,6.27
2019-05-22T17:43:48.909Z,7.00
2019-05-22T17:46:18.898Z,6.77
2019-05-22T17:48:49.233Z,6.63
2019-05-22T17:51:20.059Z,7.10
2019-05-22T17:53:49.477Z,8.67
2019-05-22T17:56:19.718Z,6.43
2019-05-22T17:58:48.787Z,5.60
2019-05-22T18:01:19.964Z,4.63
2019-05-22T18:03:49.233Z,4.57
2019-05-22T18:06:18.641Z,4.27
2019-05-22T18:08:48.134Z,4.90
2019-05-22T18:11:17.135Z,4.90
2019-05-22T18:13:54.834Z,4.83
2019-05-22T18:16:27.338Z,5.03
2019-05-22T18:18:56.916Z,5.43
2019-05-22T18:21:25.796Z,5.13
2019-05-22T18:23:54.911Z,5.40
2019-05-22T18:26:24.121Z,5.97
2019-05-22T18:28:53.616Z,5.67
2019-05-22T18:31:22.816Z,4.70
2019-05-22T18:33:51.933Z,5.13
2019-05-22T18:36:21.415Z,5.57
2019-05-22T18:38:50.530Z,6.13
2019-05-22T18:41:19.609Z,4.90
2019-05-22T18:43:49.117Z,5.40
2019-05-22T18:46:18.373Z,5.20
2019-05-22T18:48:48.316Z,5.20
2019-05-22T18:51:17.954Z,5.90
2019-05-22T18:53:47.350Z,5.93
2019-05-22T18:56:16.337Z,5.20
2019-05-22T18:58:47.176Z,5.80
2019-05-22T19:01:16.800Z,5.70
2019-05-22T19:03:46.398Z,6.60
2019-05-22T19:06:28.622Z,5.47
2019-05-22T19:08:47.660Z,5.90
2019-05-22T19:11:16.758Z,5.73
2019-05-22T19:13:45.802Z,6.53
2019-05-22T19:16:15.269Z,7.70
2019-05-22T19:18:44.457Z,7.47
2019-05-22T19:21:13.874Z,6.80
2019-05-22T19:23:42.860Z,5.60
2019-05-22T19:26:11.952Z,6.83
2019-05-22T19:28:44.042Z,10.03
2019-05-22T19:31:12.942Z,6.60
2019-05-22T19:33:42.301Z,7.70
2019-05-22T19:36:11.385Z,5.47
2019-05-22T19:38:40.820Z,5.57
2019-05-22T19:41:10.854Z,6.20
2019-05-22T19:43:40.462Z,7.40
2019-05-22T19:46:09.888Z,7.37
2019-05-22T19:48:39.449Z,5.87
2019-05-22T19:51:08.762Z,7.10
2019-05-22T19:53:37.755Z,8.33
2019-05-22T19:56:07.791Z,6.47
2019-05-22T19:58:36.708Z,7.70
2019-05-22T20:01:06.073Z,8.13
2019-05-22T20:03:35.002Z,7.87
2019-05-22T20:06:04.063Z,8.67
2019-05-22T20:08:36.258Z,7.30
2019-05-22T20:11:04.998Z,6.80
2019-05-22T20:13:34.635Z,10.17
2019-05-22T20:16:04.031Z,8.50
2019-05-22T20:18:33.937Z,9.77
2019-05-22T20:21:03.046Z,8.70
2019-05-22T20:23:36.227Z,8.67
2019-05-22T20:26:03.381Z,9.00
2019-05-22T20:28:32.484Z,8.27
2019-05-22T20:31:02.934Z,7.77
2019-05-22T20:33:34.051Z,10.10
2019-05-22T20:36:03.335Z,9.13
2019-05-22T20:38:32.287Z,10.53
2019-05-22T20:41:01.579Z,10.43
2019-05-22T20:43:32.666Z,8.17
2019-05-22T20:46:04.251Z,8.50
2019-05-22T20:48:33.341Z,9.07
2019-05-22T20:51:04.286Z,7.93
2019-05-22T20:53:52.400Z,7.33
2019-05-22T20:56:08.012Z,7.50
2019-05-22T20:58:37.311Z,7.13
2019-05-22T21:01:07.724Z,7.93
2019-05-22T21:03:37.279Z,8.80
2019-05-22T21:06:09.311Z,7.93
2019-05-22T21:08:38.530Z,10.07
2019-05-22T21:11:09.144Z,9.93
2019-05-22T21:13:38.242Z,9.60
2019-05-22T21:16:07.831Z,9.33
2019-05-22T21:18:38.462Z,8.47
2019-05-22T21:21:08.589Z,8.30
2019-05-22T21:23:39.007Z,11.10
2019-05-22T21:26:08.719Z,11.57
2019-05-22T21:28:38.871Z,13.73
2019-05-22T21:31:08.460Z,11.97
2019-05-22T21:33:38.749Z,12.97
2019-05-22T21:36:11.017Z,9.00
2019-05-22T21:38:40.554Z,9.77
2019-05-22T21:41:10.288Z,8.83
2019-05-22T21:43:39.489Z,11.03
2019-05-22T21:46:08.864Z,13.30
2019-05-22T21:48:38.325Z,12.93
2019-05-22T21:51:08.004Z,10.53
2019-05-22T21:53:37.403Z,10.23
2019-05-22T21:56:06.537Z,10.13
2019-05-22T21:58:35.501Z,8.87
2019-05-22T22:01:09.852Z,7.00
2019-05-22T22:03:44.751Z,14.43
2019-05-22T22:06:14.820Z,8.13
2019-05-22T22:08:44.587Z,6.57
2019-05-22T22:11:14.464Z,8.10
2019-05-22T22:13:43.772Z,8.23
2019-05-22T22:16:13.074Z,6.13
2019-05-22T22:18:42.201Z,6.30
2019-05-22T22:21:12.778Z,5.40
2019-05-22T22:23:44.611Z,5.70
2019-05-22T22:26:25.374Z,5.10
2019-05-22T22:28:44.473Z,6.07
2019-05-22T22:31:15.567Z,7.13
2019-05-22T22:33:50.191Z,7.13
2019-05-22T22:36:20.216Z,9.80
2019-05-22T22:38:49.104Z,6.83
2019-05-22T22:41:19.063Z,8.40
2019-05-22T22:43:49.351Z,7.60
2019-05-22T22:46:37.906Z,10.93
2019-05-22T22:49:09.552Z,7.27
2019-05-22T22:51:39.046Z,8.83
2019-05-22T22:54:10.005Z,11.10
2019-05-22T22:56:39.510Z,9.20
2019-05-22T22:59:09.504Z,9.10
2019-05-22T23:01:41.902Z,9.73
2019-05-22T23:04:12.603Z,10.50
2019-05-22T23:06:43.372Z,6.83
2019-05-22T23:09:12.552Z,7.70
2019-05-22T23:11:42.021Z,10.60
2019-05-22T23:14:12.485Z,11.83
2019-05-22T23:16:41.982Z,12.23
2019-05-22T23:19:17.238Z,8.57
2019-05-22T23:21:46.536Z,9.03
2019-05-22T23:24:16.795Z,9.40
2019-05-22T23:26:47.165Z,9.97
2019-05-22T23:29:17.427Z,8.93
2019-05-22T23:31:49.940Z,12.20
2019-05-22T23:34:19.103Z,12.80
2019-05-22T23:36:48.576Z,10.20
2019-05-22T23:39:20.573Z,10.63
2019-05-22T23:41:50.769Z,14.20
2019-05-22T23:44:21.608Z,14.93
2019-05-22T23:46:51.436Z,11.07
2019-05-22T23:49:20.751Z,27.53
2019-05-22T23:51:50.642Z,14.77
2019-05-22T23:54:19.940Z,12.60
2019-05-22T23:56:51.760Z,11.50
2019-05-22T23:59:20.312Z,14.70
